Live WebCam Live WebCam



There are multiple Weather-warnings   Click here for more information

Nearby METAR Reports

  
ENBR - Bergen/Flesland, Norway
Distance from station: E 6km
Updated: 15-12-2018 16:50
Mostly Cloudy
Mostly Cloudy  
 Wind from SSE
Wind: SSE 33 km/h
Temperature:  4°C
Wind Chill:  -2°C
Dew Point:  -5°C
Humidity:  52%
Barometer:  1022 hPa
Clouds:  Mostly Cloudy
Visibility:  10 km
Cloud details:  Few Clouds 610 m
Mostly Cloudy 1372 m
2018/12/15 15:50 ENBR 151550Z 15018KT 9999 FEW020 BKN045 04/M05 Q1022 TEMPO 15022G32KT RMK WIND 1200FT 14035KT
ENSO - Stord/Soerstokke, Norway
Distance from station: SSE 56km
Updated: 14-12-2018 19:50
NOT Current
Mostly Cloudy
Mostly Cloudy  
 Wind from ESE
Wind: ESE 19 km/h
Temperature:  3°C
Wind Chill:  -2°C
Dew Point:  -5°C
Humidity:  56%
Barometer:  1030 hPa
Clouds:  Mostly Cloudy
Visibility:  10 km
Cloud details:  Mostly Cloudy 1737 m
2018/12/14 18:50 ENSO 141850Z 12010KT 9999 BKN057 03/M05 Q1030
ENQA - Troll-A Heli, Norway
Distance from station: WNW 87km
Updated: 15-12-2018 16:50
Mostly Cloudy
Mostly Cloudy  
 Wind from SSE
Wind: SSE 94 km/h, Gust: 117 km/h
Temperature:  4°C
Wind Chill:  -5°C
Dew Point:  0°C
Humidity:  75%
Barometer:  1017 hPa
Clouds:  Mostly Cloudy
Visibility:  16 miles
Cloud details:  Mostly Cloudy 610 m
Mostly Cloudy 1707 m
2018/12/15 15:50 ENQA 151550Z AUTO 15051G63KT 9999NDV BKN020/// BKN056/// 04/00 Q1017 W04/S6
ENHD - Haugesund/Karmoy, Norway
Distance from station: S 103km
Updated: 15-12-2018 16:50
Mostly Cloudy
Mostly Cloudy  
 Wind from SSE
Wind: SSE 28 km/h
Temperature:  3°C
Wind Chill:  -3°C
Dew Point:  -2°C
Humidity:  70%
Barometer:  1022 hPa
Clouds:  Mostly Cloudy
Visibility:  10 km
Cloud details:  Few Clouds 762 m
Mostly Cloudy 1219 m
2018/12/15 15:50 ENHD 151550Z 15015KT 9999 FEW025 BKN040 03/M02 Q1022
ENQC - Troll-C Heli, Norway
Distance from station: NW 106km
Updated: 15-12-2018 16:50
Light Rain Showers, Mostly Cloudy
Light Rain Showers, Mostly Cloudy  
 Wind from SE
Wind: SE 89 km/h
Temperature:  4°C
Wind Chill:  -4°C
Dew Point:  0°C
Humidity:  75%
Barometer:  1016 hPa
Summary:  Light Rain Showers
Clouds:  Mostly Cloudy
Visibility:  16 miles
Cloud details:  Mostly Cloudy 823 m
2018/12/15 15:50 ENQC 151550Z AUTO 14048KT 9999NDV -SHRA BKN027/// 04/00 Q1016 W///S6
ENOA - Oseberg, Norway
Distance from station: WNW 128km
Updated: 15-12-2018 16:50
Mostly Cloudy
Mostly Cloudy  
 Wind from SSE
Wind: SSE 83 km/h, Gust: 107 km/h
Temperature:  5°C
Wind Chill:  -3°C
Dew Point:  0°C
Humidity:  70%
Barometer:  1015 hPa
Clouds:  Mostly Cloudy
Visibility:  10 km
Cloud details:  Few Clouds 610 m
Mostly Cloudy 1219 m
2018/12/15 15:50 ENOA 151550Z 15045G58KT 9999 FEW020 BKN040 05/00 Q1015 W///S6
ENBL - Forde/Bringeland, Norway
Distance from station: NNE 130km
Updated: 15-12-2018 16:50
Few Clouds
Few Clouds  
 Wind from ESE
Wind: ESE 13 km/h
Temperature:  -2°C
Wind Chill:  -7°C
Dew Point:  -9°C
Humidity:  59%
Barometer:  1022 hPa
Clouds:  Few Clouds
Visibility:  10 km
Cloud details:  Few Clouds 1524 m
2018/12/15 15:50 ENBL 151550Z 11007KT 9999 FEW050 M02/M09 Q1022
ENFL - Floro, Norway
Distance from station: N 144km
Updated: 15-12-2018 16:50
Mostly Cloudy
Mostly Cloudy  
 Wind from ESE
Wind: ESE 37 km/h
Temperature:  3°C
Wind Chill:  -3°C
Dew Point:  -5°C
Humidity:  56%
Barometer:  1022 hPa
Clouds:  Mostly Cloudy
Visibility:  10 km
Cloud details:  Few Clouds 610 m
Mostly Cloudy 1676 m
2018/12/15 15:50 ENFL 151550Z 12020KT 9999 FEW020 BKN055 03/M05 Q1022
ENSG - Sogndal/Haukasen, Norway
Distance from station: NE 145km
Updated: 15-12-2018 13:20
NOT Current
Few Clouds
Few Clouds  
 Wind from E
Wind: E 9 km/h
Temperature:  -8°C
Wind Chill:  -12°C
Dew Point:  -8°C
Humidity:  100%
Barometer:  1025 hPa
Clouds:  Few Clouds
Visibility:  10 km
Cloud details:  Few Clouds 914 m
2018/12/15 12:20 ENSG 151220Z 08005KT 9999 FEW030 M08/M08 Q1025 RMK WIND 3806FT 10018KT
ENZV - Stavanger/Sola(A, Norway
Distance from station: S 159km
Updated: 15-12-2018 16:50
Light Rain Showers, Mostly Cloudy
Light Rain Showers, Mostly Cloudy  
 Wind from SE
Wind: SE 22 km/h
Temperature:  3°C
Wind Chill:  -2°C
Dew Point:  -2°C
Humidity:  70%
Barometer:  1023 hPa
Summary:  Light Rain Showers
Clouds:  Mostly Cloudy
Visibility:  10 km
Cloud details:  Few Clouds 549 m
Mostly Cloudy 945 m
2018/12/15 15:50 ENZV 151550Z 14012KT 090V170 9999 -SHRA FEW018 BKN031 03/M02 Q1023 TEMPO 15022G32KT
ENHM - Heimdal Oilp, Norway
Distance from station: WSW 179km
Updated: 15-12-2018 16:50
Light Rain Showers, Mostly Cloudy
Light Rain Showers, Mostly Cloudy  
 Wind from SE
Wind: SE 76 km/h
Temperature:  4°C
Wind Chill:  -4°C
Dew Point:  2°C
Humidity:  87%
Barometer:  1013 hPa
Summary:  Light Rain Showers
Clouds:  Mostly Cloudy
Visibility:  10 km
Cloud details:  Few Clouds 457 m
Partly Cloudy 762 m
Mostly Cloudy 1219 m
2018/12/15 15:50 ENHM 151550Z 14041KT 9999 -SHRA FEW015 SCT025 BKN040 04/02 Q1013 W08/S6
ENSD - Sandane/Anda, Norway
Distance from station: NNE 180km
Updated: 15-12-2018 14:50
NOT Current
Few Clouds
Few Clouds  
 Wind from E
Wind: E 19 km/h
Temperature:  0°C
Wind Chill:  -5°C
Dew Point:  -7°C
Humidity:  60%
Barometer:  1026 hPa
Clouds:  Few Clouds
Visibility:  10 km
Cloud details:  Few Clouds 1676 m
2018/12/15 13:50 ENSD 151350Z 09010KT 9999 FEW055 00/M07 Q1026 RMK WIND 1138FT 06007KT

Script developed by  Saratoga-weather.org Adapted for the template by  Weerstation Leuven